Time;durP1;ratioP1;P1;durP2;ratioP2;P2;SDS_P1;SDS_P2;PMS_P1;PMS_P2;Temp;Humidity;BMP_temperature;BMP_pressure;BME280_temperature;BME280_humidity;BME280_pressure;Samples;Min_cycle;Max_cycle;Signal;HPM_P1;HPM_P2
2021/08/27 00:02:12;;;;;;;2.83;2.37;;;;;;;15.37;100.00;99571.75;1748371;82;21080;-78
2021/08/27 00:04:41;;;;;;;2.20;2.00;;;;;;;15.34;100.00;99570.61;1748444;82;21109;-76
2021/08/27 00:07:07;;;;;;;3.37;2.12;;;;;;;15.34;100.00;99574.59;1748588;82;21044;-77
2021/08/27 00:09:35;;;;;;;2.17;1.75;;;;;;;15.34;100.00;99575.07;1748616;82;21069;-77
2021/08/27 00:12:02;;;;;;;4.92;1.50;;;;;;;15.34;100.00;99575.07;1749165;82;21058;-75
2021/08/27 00:14:30;;;;;;;2.08;1.60;;;;;;;15.33;100.00;99578.69;1749419;81;21522;-76
2021/08/27 00:16:57;;;;;;;2.50;1.52;;;;;;;15.31;100.00;99569.01;1749542;82;21005;-75
2021/08/27 00:19:24;;;;;;;3.40;2.20;;;;;;;15.29;100.00;99572.23;1749229;82;20998;-77
2021/08/27 00:21:52;;;;;;;4.58;2.12;;;;;;;15.27;100.00;99571.48;1749182;82;21491;-76
2021/08/27 00:24:18;;;;;;;2.45;1.92;;;;;;;15.25;100.00;99573.41;1749366;82;21557;-76
2021/08/27 00:26:46;;;;;;;2.75;1.90;;;;;;;15.23;100.00;99566.03;1749553;82;21420;-76
2021/08/27 00:29:14;;;;;;;2.10;1.90;;;;;;;15.24;100.00;99567.72;1749214;82;21085;-77
2021/08/27 00:31:41;;;;;;;3.45;2.42;;;;;;;15.23;100.00;99568.68;1749271;82;20994;-77
2021/08/27 00:34:08;;;;;;;4.53;2.30;;;;;;;15.25;100.00;99576.06;1749299;82;21093;-77
2021/08/27 00:36:34;;;;;;;2.17;1.87;;;;;;;15.26;100.00;99576.42;1749601;82;21006;-77
2021/08/27 00:39:01;;;;;;;3.25;2.83;;;;;;;15.26;100.00;99576.42;1749849;82;21533;-76
2021/08/27 00:41:27;;;;;;;3.40;1.62;;;;;;;15.28;100.00;99577.66;1748838;82;21030;-78
2021/08/27 00:43:56;;;;;;;2.70;2.20;;;;;;;15.28;100.00;99574.53;1749099;82;21044;-75
2021/08/27 00:46:23;;;;;;;2.45;2.22;;;;;;;15.28;100.00;99578.51;1749369;82;21160;-76
2021/08/27 00:48:49;;;;;;;2.55;2.02;;;;;;;15.28;100.00;99585.14;1749172;82;21120;-77
2021/08/27 00:51:16;;;;;;;2.30;2.10;;;;;;;15.28;100.00;99585.62;1748806;82;21037;-78
2021/08/27 00:53:43;;;;;;;2.62;2.00;;;;;;;15.28;100.00;99579.83;1748788;82;21071;-78
2021/08/27 00:56:11;;;;;;;3.85;2.15;;;;;;;15.27;100.00;99580.77;1719659;82;21037;-77
2021/08/27 00:58:37;;;;;;;2.72;2.02;;;;;;;15.27;100.00;99587.40;1718787;83;21079;-77
2021/08/27 01:01:04;;;;;;;3.02;2.05;;;;;;;15.26;100.00;99587.04;1691975;83;21152;-77
2021/08/27 01:03:31;;;;;;;2.67;2.25;;;;;;;15.28;100.00;99592.25;1719089;83;21041;-78
2021/08/27 01:06:23;;;;;;;2.30;1.95;;;;;;;15.28;100.00;99598.41;1718881;83;21100;-78
2021/08/27 01:09:02;;;;;;;2.50;2.00;;;;;;;15.27;100.00;99594.03;1718846;83;21049;-77
2021/08/27 01:11:33;;;;;;;4.22;2.30;;;;;;;15.28;100.00;99602.38;1718942;83;21759;-77
2021/08/27 01:14:06;;;;;;;2.85;2.55;;;;;;;15.28;100.00;99601.05;1718467;83;21601;-76
2021/08/27 01:16:56;;;;;;;2.30;2.10;;;;;;;15.30;100.00;99597.83;1718915;83;21568;-77
2021/08/27 01:19:49;;;;;;;3.00;2.07;;;;;;;15.33;100.00;99606.55;1719566;83;21018;-76
2021/08/27 01:22:40;;;;;;;2.92;2.65;;;;;;;15.32;100.00;99600.36;1718838;83;21092;-78
2021/08/27 01:25:07;;;;;;;3.65;2.50;;;;;;;15.33;100.00;99603.89;1719183;83;21752;-78
2021/08/27 01:27:33;;;;;;;2.95;2.52;;;;;;;15.31;100.00;99598.20;1692289;83;20997;-77
2021/08/27 01:30:11;;;;;;;2.65;2.45;;;;;;;15.31;100.00;99590.23;1718621;83;21093;-77
2021/08/27 01:32:55;;;;;;;2.60;2.20;;;;;;;15.34;100.00;99594.97;1718348;83;21112;-75
2021/08/27 01:35:21;;;;;;;3.22;2.45;;;;;;;15.34;100.00;99591.83;1718516;83;21092;-77
2021/08/27 01:37:49;;;;;;;4.80;2.62;;;;;;;15.33;100.00;99585.32;1718562;83;21500;-77
2021/08/27 01:40:16;;;;;;;2.65;2.40;;;;;;;15.32;100.00;99587.09;1718577;83;21057;-78
2021/08/27 01:42:44;;;;;;;4.05;2.42;;;;;;;15.33;100.00;99594.61;1718343;83;21081;-79
2021/08/27 01:45:16;;;;;;;4.30;2.40;;;;;;;15.33;100.00;99587.97;1721373;83;21148;-77
2021/08/27 01:47:43;;;;;;;3.08;2.62;;;;;;;15.34;100.00;99585.69;1718862;83;21080;-77
2021/08/27 01:50:10;;;;;;;3.42;2.62;;;;;;;15.32;100.00;99584.45;1718999;83;21894;-77
2021/08/27 01:52:37;;;;;;;4.05;2.65;;;;;;;15.31;100.00;99578.30;1718474;83;21026;-76
2021/08/27 01:55:06;;;;;;;4.55;3.05;;;;;;;15.32;100.00;99576.48;1702693;83;21036;-78
2021/08/27 01:57:33;;;;;;;2.90;2.60;;;;;;;15.34;100.00;99577.72;1718443;83;21039;-77
2021/08/27 02:00:02;;;;;;;4.78;2.67;;;;;;;15.33;100.00;99574.71;1692436;83;20996;-77
2021/08/27 02:02:31;;;;;;;3.33;2.83;;;;;;;15.34;100.00;99575.07;1718506;83;21482;-77
2021/08/27 02:05:01;;;;;;;2.95;2.65;;;;;;;15.34;100.00;99580.38;1718357;83;21147;-77
2021/08/27 02:07:28;;;;;;;4.45;3.02;;;;;;;15.36;100.00;99584.63;1718658;83;21142;-77
2021/08/27 02:09:56;;;;;;;4.47;2.85;;;;;;;15.37;100.00;99585.47;1718226;83;21110;-78
2021/08/27 02:12:25;;;;;;;3.87;2.65;;;;;;;15.37;100.00;99585.47;1718236;83;21585;-76
2021/08/27 02:14:58;;;;;;;3.30;3.00;;;;;;;15.37;100.00;99582.81;1704267;83;21016;-76
2021/08/27 02:17:25;;;;;;;4.65;2.95;;;;;;;15.36;100.00;99584.63;1697856;84;21075;-78
2021/08/27 02:19:54;;;;;;;5.35;3.20;;;;;;;15.37;100.00;99582.81;1698145;83;21107;-77
2021/08/27 02:22:22;;;;;;;5.17;3.15;;;;;;;15.37;100.00;99580.16;1697787;84;21087;-77
2021/08/27 02:25:15;;;;;;;6.25;2.98;;;;;;;15.36;100.00;99581.13;1698163;84;21079;-78
2021/08/27 02:27:43;;;;;;;4.78;3.58;;;;;;;15.37;100.00;99589.00;1697958;84;21884;-77
2021/08/27 02:30:10;;;;;;;3.85;3.40;;;;;;;15.36;100.00;99586.44;1698251;84;21015;-76
2021/08/27 02:32:37;;;;;;;4.83;3.22;;;;;;;15.36;100.00;99585.11;1701404;83;21051;-78
2021/08/27 02:35:04;;;;;;;4.47;3.22;;;;;;;15.34;100.00;99588.34;1698166;84;21064;-77
2021/08/27 02:37:33;;;;;;;3.05;2.67;;;;;;;15.34;100.00;99588.34;1697852;84;21028;-78
2021/08/27 02:40:02;;;;;;;4.55;3.05;;;;;;;15.34;100.00;99594.97;1698364;84;21076;-76
2021/08/27 02:42:30;;;;;;;4.37;3.00;;;;;;;15.34;100.00;99596.30;1697862;84;21051;-78
2021/08/27 02:44:59;;;;;;;3.60;2.65;;;;;;;15.34;100.00;99604.25;1697693;84;21068;-76
2021/08/27 02:47:28;;;;;;;2.98;2.67;;;;;;;15.33;100.00;99599.91;1697982;84;21099;-78
2021/08/27 02:49:56;;;;;;;2.47;2.15;;;;;;;15.33;100.00;99602.56;1697862;83;21090;-78
2021/08/27 02:52:28;;;;;;;3.67;2.25;;;;;;;15.34;100.00;99609.56;1677656;84;21630;-77
2021/08/27 02:55:20;;;;;;;3.37;2.47;;;;;;;15.34;100.00;99612.21;1717810;82;21030;-78
2021/08/27 02:58:03;;;;;;;2.30;2.10;;;;;;;15.34;100.00;99610.89;1742697;82;21065;-78
2021/08/27 03:00:50;;;;;;;4.62;2.50;;;;;;;15.30;100.00;99619.05;1736940;82;21084;-77
2021/08/27 03:03:12;;;;;;;2.67;2.27;;;;;;;15.25;100.00;99622.48;1712117;83;21003;-78
2021/08/27 03:05:40;;;;;;;2.60;2.10;;;;;;;15.23;100.00;99620.41;1713017;83;21388;-79
2021/08/27 03:08:13;;;;;;;3.02;2.05;;;;;;;15.20;100.00;99632.52;1712878;83;21604;-78
2021/08/27 03:10:49;;;;;;;3.45;2.37;;;;;;;15.17;100.00;99632.72;1686130;83;21057;-78
2021/08/27 03:13:27;;;;;;;2.92;2.52;;;;;;;15.15;100.00;99634.62;1712964;83;21033;-77
2021/08/27 03:16:02;;;;;;;4.25;2.62;;;;;;;15.10;100.00;99642.02;1713137;83;21073;-78
2021/08/27 03:18:34;;;;;;;6.03;2.77;;;;;;;15.06;100.00;99644.48;1713185;83;21161;-79
2021/08/27 03:21:05;;;;;;;4.85;3.52;;;;;;;15.02;100.00;99642.97;1713100;83;21533;-77
2021/08/27 03:23:33;;;;;;;3.72;3.17;;;;;;;14.98;100.00;99641.48;1712875;83;21077;-78
2021/08/27 03:26:01;;;;;;;5.58;3.52;;;;;;;14.95;100.00;99648.28;1713365;83;21561;-77
2021/08/27 03:28:28;;;;;;;3.90;3.50;;;;;;;14.92;100.00;99651.14;1712923;83;21084;-78
2021/08/27 03:30:55;;;;;;;3.85;3.45;;;;;;;14.87;100.00;99652.27;1708533;83;22022;-78
2021/08/27 03:33:25;;;;;;;4.00;3.58;;;;;;;14.85;100.00;99653.31;1712899;83;21052;-78
2021/08/27 03:35:54;;;;;;;4.40;3.10;;;;;;;14.83;100.00;99658.70;1712905;83;21999;-78
2021/08/27 03:38:26;;;;;;;4.58;3.60;;;;;;;14.82;100.00;99662.80;1712866;83;21136;-78
2021/08/27 03:40:55;;;;;;;8.93;3.90;;;;;;;14.81;100.00;99662.41;1713057;83;21596;-77
2021/08/27 03:43:21;;;;;;;3.45;3.15;;;;;;;14.81;100.00;99660.59;1712990;83;21525;-77
2021/08/27 03:45:49;;;;;;;6.05;3.80;;;;;;;14.81;100.00;99661.92;1713349;83;21022;-78
2021/08/27 03:48:18;;;;;;;3.92;3.45;;;;;;;14.83;100.00;99660.03;1713171;83;21033;-78
2021/08/27 03:50:49;;;;;;;4.15;3.42;;;;;;;14.82;100.00;99664.13;1713107;83;21120;-77
2021/08/27 03:53:16;;;;;;;5.47;4.30;;;;;;;14.82;100.00;99669.42;1713266;83;21030;-78
2021/08/27 03:55:50;;;;;;;4.92;3.62;;;;;;;14.80;100.00;99672.16;1736555;82;21131;-76
2021/08/27 03:58:19;;;;;;;4.55;4.12;;;;;;;14.78;100.00;99672.72;1742643;82;21030;-78
2021/08/27 04:00:45;;;;;;;4.47;3.47;;;;;;;14.76;100.00;99678.59;1743267;81;21041;-77
2021/08/27 04:03:12;;;;;;;4.45;3.87;;;;;;;14.76;100.00;99686.55;1742653;82;21643;-77
2021/08/27 04:05:40;;;;;;;5.53;4.35;;;;;;;14.74;100.00;99685.78;1742977;82;21025;-77
2021/08/27 04:08:07;;;;;;;5.58;4.50;;;;;;;14.73;100.00;99677.46;1714042;82;21727;-77
2021/08/27 04:10:35;;;;;;;6.03;4.47;;;;;;;14.73;100.00;99683.24;1743105;82;21451;-78
2021/08/27 04:13:01;;;;;;;6.55;4.80;;;;;;;14.73;100.00;99676.14;1742440;81;21014;-79
2021/08/27 04:15:30;;;;;;;5.17;3.98;;;;;;;14.75;100.00;99679.55;1736831;82;21101;-76
2021/08/27 04:17:56;;;;;;;9.15;4.50;;;;;;;14.75;100.00;99676.90;1734431;82;21007;-78
2021/08/27 04:20:23;;;;;;;8.28;4.65;;;;;;;14.78;100.00;99675.38;1734903;82;21092;-78
2021/08/27 04:22:51;;;;;;;6.28;4.35;;;;;;;14.82;100.00;99670.75;1734548;82;21034;-77
2021/08/27 04:25:18;;;;;;;7.17;4.78;;;;;;;14.83;100.00;99664.00;1734467;82;21057;-77
2021/08/27 04:27:45;;;;;;;6.55;4.53;;;;;;;14.85;100.00;99667.41;1734464;82;21050;-78
2021/08/27 04:30:12;;;;;;;5.65;4.50;;;;;;;14.88;100.00;99667.25;1735545;82;21054;-76
2021/08/27 04:32:39;;;;;;;6.40;4.80;;;;;;;14.89;100.00;99670.27;1735140;82;21144;-77
2021/08/27 04:35:08;;;;;;;6.53;4.20;;;;;;;14.92;100.00;99670.55;1734444;82;21042;-77
2021/08/27 04:37:34;;;;;;;5.95;4.83;;;;;;;14.94;100.00;99665.16;1734503;82;21037;-77
2021/08/27 04:40:00;;;;;;;7.45;4.47;;;;;;;14.97;100.00;99667.61;1734678;82;21135;-78
2021/08/27 04:42:29;;;;;;;4.22;3.58;;;;;;;14.99;100.00;99668.36;1734394;82;21073;-77
2021/08/27 04:44:56;;;;;;;6.70;4.50;;;;;;;15.01;100.00;99673.10;1734511;82;21145;-78
2021/08/27 04:47:24;;;;;;;6.97;3.98;;;;;;;15.05;100.00;99670.16;1734389;82;20999;-78
2021/08/27 04:49:53;;;;;;;6.40;4.78;;;;;;;15.09;100.00;99674.78;1735013;82;21045;-79
2021/08/27 04:52:24;;;;;;;5.03;4.00;;;;;;;15.14;100.00;99675.37;1734573;82;21129;-78
2021/08/27 04:54:54;;;;;;;4.55;3.95;;;;;;;15.18;100.00;99679.50;1721356;82;21057;-78
2021/08/27 04:57:23;;;;;;;7.30;3.80;;;;;;;15.21;100.00;99687.77;1705252;84;21117;-77
2021/08/27 04:59:51;;;;;;;6.03;3.65;;;;;;;15.24;100.00;99685.75;1684519;84;21081;-79
2021/08/27 05:02:18;;;;;;;4.90;3.70;;;;;;;15.26;100.00;99682.53;1705121;83;21046;-78
2021/08/27 05:04:44;;;;;;;9.73;6.50;;;;;;;15.30;100.00;99678.75;1704682;84;21042;-79
2021/08/27 05:07:14;;;;;;;6.28;4.53;;;;;;;15.36;100.00;99684.60;1705427;84;21620;-78
2021/08/27 05:09:41;;;;;;;5.33;4.67;;;;;;;15.36;100.00;99680.14;1705251;84;21731;-80
2021/08/27 05:12:07;;;;;;;5.03;4.45;;;;;;;15.37;100.00;99673.02;1704886;84;21061;-78
2021/08/27 05:14:34;;;;;;;5.12;4.00;;;;;;;15.38;100.00;99680.05;1707661;83;21088;-79
2021/08/27 05:17:02;;;;;;;5.22;4.10;;;;;;;15.40;100.00;99683.46;1718894;83;21676;-78
2021/08/27 05:19:28;;;;;;;4.67;3.70;;;;;;;15.44;100.00;99682.33;1718616;83;21076;-77
2021/08/27 05:21:55;;;;;;;6.33;4.62;;;;;;;15.42;100.00;99678.91;1718808;83;21511;-79
2021/08/27 05:24:22;;;;;;;6.53;4.25;;;;;;;15.43;100.00;99682.77;1718711;83;21080;-78
2021/08/27 05:26:49;;;;;;;5.80;3.85;;;;;;;15.43;100.00;99692.06;1718723;82;21604;-78
2021/08/27 05:29:16;;;;;;;4.80;4.30;;;;;;;15.42;100.00;99695.67;1718770;82;21037;-78
2021/08/27 05:31:43;;;;;;;7.05;3.67;;;;;;;15.43;100.00;99699.17;1719029;83;21077;-79
2021/08/27 05:34:10;;;;;;;5.33;3.35;;;;;;;15.46;100.00;99693.66;1718608;83;21839;-78
2021/08/27 05:36:36;;;;;;;6.20;3.10;;;;;;;15.53;100.00;99687.04;1718830;83;21081;-78
2021/08/27 05:39:03;;;;;;;6.75;3.17;;;;;;;15.66;100.00;99692.38;1718596;83;21065;-80
2021/08/27 05:41:31;;;;;;;5.70;2.67;;;;;;;15.77;100.00;99690.40;1718672;83;21305;-79
2021/08/27 05:43:58;;;;;;;3.67;3.10;;;;;;;15.90;100.00;99687.32;1718703;83;21384;-79
2021/08/27 05:46:24;;;;;;;5.08;2.75;;;;;;;16.02;100.00;99691.80;1718799;83;21498;-79
2021/08/27 05:48:50;;;;;;;4.92;2.95;;;;;;;16.18;100.00;99688.98;1718488;83;21069;-78
2021/08/27 05:51:17;;;;;;;3.60;2.95;;;;;;;16.36;100.00;99689.55;1719000;83;21053;-78
2021/08/27 05:53:44;;;;;;;4.47;3.12;;;;;;;16.54;100.00;99690.07;1691781;83;21624;-79
2021/08/27 05:56:11;;;;;;;3.52;3.10;;;;;;;16.69;100.00;99685.52;1747893;82;21244;-79
2021/08/27 05:58:38;;;;;;;2.65;2.20;;;;;;;16.84;100.00;99687.61;1748412;82;21148;-79
2021/08/27 06:01:05;;;;;;;3.65;2.80;;;;;;;17.07;100.00;99684.66;1748322;82;21556;-78
2021/08/27 06:03:31;;;;;;;2.67;2.47;;;;;;;17.30;98.73;99689.66;1748307;82;21068;-80
2021/08/27 06:05:58;;;;;;;5.53;2.60;;;;;;;17.60;96.97;99690.61;1748529;82;21092;-78
2021/08/27 06:08:24;;;;;;;2.80;2.50;;;;;;;17.85;96.21;99690.98;1748425;82;21607;-79
2021/08/27 06:10:52;;;;;;;6.25;2.52;;;;;;;18.18;93.82;99688.95;1748517;82;21081;-78
2021/08/27 06:13:19;;;;;;;6.25;2.72;;;;;;;18.48;91.21;99689.41;1748496;82;21045;-79
2021/08/27 06:15:45;;;;;;;4.70;2.42;;;;;;;18.71;90.34;99683.13;1748637;81;21493;-78
2021/08/27 06:18:12;;;;;;;5.53;2.62;;;;;;;18.98;89.50;99690.83;1748231;82;21069;-78
2021/08/27 06:20:39;;;;;;;2.65;2.37;;;;;;;19.31;87.72;99682.42;1748362;82;21117;-79
2021/08/27 06:23:05;;;;;;;4.20;2.50;;;;;;;19.70;86.59;99689.54;1748391;82;21129;-77
2021/08/27 06:25:32;;;;;;;6.70;2.50;;;;;;;20.12;84.49;99685.61;1748760;82;21565;-78
2021/08/27 06:27:59;;;;;;;8.80;3.17;;;;;;;20.41;80.71;99684.49;1745591;81;21030;-78
2021/08/27 06:30:25;;;;;;;2.37;2.08;;;;;;;20.54;80.69;99689.63;1748155;82;21019;-78
2021/08/27 06:32:52;;;;;;;2.83;2.42;;;;;;;20.67;78.93;99695.66;1748445;82;21096;-78
2021/08/27 06:35:19;;;;;;;2.15;1.75;;;;;;;20.75;76.90;99694.98;1748431;82;21645;-78
2021/08/27 06:40:33;;;;;;;3.80;2.12;;;;;;;20.71;77.00;99691.75;1748662;82;21002;-79
2021/08/27 06:43:00;;;;;;;3.45;1.80;;;;;;;20.85;75.39;99696.40;1748809;82;21042;-78
2021/08/27 06:45:28;;;;;;;2.72;2.30;;;;;;;20.86;75.58;99697.58;1748506;82;21048;-77
2021/08/27 06:47:54;;;;;;;2.52;1.77;;;;;;;20.78;75.58;99692.56;1749294;82;21481;-77
2021/08/27 06:50:20;;;;;;;2.95;1.75;;;;;;;20.85;75.13;99689.71;1748330;82;21030;-79
2021/08/27 06:52:47;;;;;;;3.67;2.22;;;;;;;20.80;74.84;99686.56;1748641;82;21037;-78
2021/08/27 06:55:13;;;;;;;2.80;2.12;;;;;;;21.14;74.67;99689.34;1731092;82;21104;-79
2021/08/27 06:57:40;;;;;;;2.17;1.50;;;;;;;21.72;73.42;99693.20;1718897;83;21567;-79
2021/08/27 07:00:08;;;;;;;3.60;1.72;;;;;;;22.53;71.98;99687.55;1718387;83;21114;-79
2021/08/27 07:02:34;;;;;;;3.65;2.35;;;;;;;23.34;65.78;99687.00;1718682;83;21592;-78
2021/08/27 07:05:02;;;;;;;3.12;1.65;;;;;;;23.72;64.59;99683.23;1718463;83;21101;-78
2021/08/27 07:07:28;;;;;;;2.27;1.70;;;;;;;24.12;62.71;99682.46;1718642;83;21571;-78
2021/08/27 07:09:57;;;;;;;2.05;1.30;;;;;;;24.43;62.49;99681.05;1718541;83;21009;-78
2021/08/27 07:12:24;;;;;;;1.75;1.37;;;;;;;25.07;60.22;99692.38;1718560;82;21665;-78
2021/08/27 07:14:50;;;;;;;2.27;1.30;;;;;;;25.31;57.87;99687.64;1718204;83;21057;-77
2021/08/27 07:17:19;;;;;;;1.80;1.47;;;;;;;25.56;56.07;99690.44;1718385;83;20998;-80
2021/08/27 07:19:47;;;;;;;1.77;1.47;;;;;;;25.88;55.72;99700.96;1718397;83;21056;-78
2021/08/27 07:22:15;;;;;;;2.10;1.00;;;;;;;26.33;54.08;99696.96;1718624;83;21508;-77
2021/08/27 07:24:42;;;;;;;1.62;1.30;;;;;;;26.85;53.78;99693.02;1718286;83;21531;-78
2021/08/27 07:27:10;;;;;;;2.30;1.22;;;;;;;27.22;51.30;99693.80;1718674;83;21094;-78
2021/08/27 07:29:37;;;;;;;2.62;1.12;;;;;;;27.16;51.06;99698.52;1718402;83;21054;-79
2021/08/27 07:32:10;;;;;;;5.25;1.30;;;;;;;26.85;49.95;99707.41;1718438;83;21636;-78
2021/08/27 07:34:34;;;;;;;1.62;1.25;;;;;;;26.47;50.70;99709.77;1717520;83;21076;-79
2021/08/27 07:37:00;;;;;;;2.50;1.47;;;;;;;26.12;51.74;99706.40;1718426;83;21116;-80
2021/08/27 07:39:27;;;;;;;1.65;1.40;;;;;;;25.84;52.63;99707.69;1718436;83;21576;-79
2021/08/27 07:41:54;;;;;;;3.98;1.52;;;;;;;25.46;53.43;99710.77;1718352;83;21061;-79
2021/08/27 07:44:22;;;;;;;2.47;1.50;;;;;;;25.18;54.54;99715.54;1718440;83;21089;-79
2021/08/27 07:46:48;;;;;;;3.20;1.17;;;;;;;25.15;54.86;99714.49;1718606;83;21640;-78
2021/08/27 07:49:14;;;;;;;2.55;1.40;;;;;;;25.04;54.59;99710.73;1718178;83;21080;-78
2021/08/27 07:51:46;;;;;;;1.40;1.17;;;;;;;24.77;54.64;99712.58;1718194;83;21064;-78
2021/08/27 07:54:09;;;;;;;1.75;1.27;;;;;;;24.37;54.71;99713.11;1721860;82;21064;-78
2021/08/27 07:56:38;;;;;;;3.25;1.70;;;;;;;24.02;56.37;99723.73;1748225;82;21112;-78
2021/08/27 07:59:06;;;;;;;3.30;1.60;;;;;;;23.84;57.34;99718.84;1748340;82;21014;-78
2021/08/27 08:01:33;;;;;;;2.30;1.40;;;;;;;23.56;58.57;99726.91;1745791;82;21759;-79
2021/08/27 08:04:05;;;;;;;1.80;1.50;;;;;;;23.47;59.35;99729.16;1748185;82;21076;-77
2021/08/27 08:06:31;;;;;;;3.30;1.25;;;;;;;23.51;59.11;99733.20;1747796;82;21065;-79
2021/08/27 08:09:01;;;;;;;2.50;1.57;;;;;;;23.42;57.91;99739.48;1748298;82;21150;-77
2021/08/27 08:11:28;;;;;;;1.73;1.40;;;;;;;23.24;58.30;99742.97;1748811;82;21080;-79
2021/08/27 08:13:54;;;;;;;4.33;1.62;;;;;;;23.12;58.15;99740.59;1747910;82;21522;-78
2021/08/27 08:16:21;;;;;;;7.47;1.65;;;;;;;23.09;58.76;99732.84;1741261;82;21113;-79
2021/08/27 08:18:47;;;;;;;2.37;1.60;;;;;;;23.28;59.02;99734.60;1733920;82;21073;-78
2021/08/27 08:21:14;;;;;;;2.83;1.70;;;;;;;23.41;57.67;99735.11;1734466;82;21114;-78
2021/08/27 08:23:41;;;;;;;2.10;1.50;;;;;;;23.50;57.17;99734.22;1734196;82;21038;-79
2021/08/27 08:26:07;;;;;;;3.33;1.35;;;;;;;23.61;57.17;99739.39;1734481;82;21112;-79
2021/08/27 08:28:34;;;;;;;1.98;1.40;;;;;;;23.79;56.86;99741.31;1734388;82;21022;-77
2021/08/27 08:31:02;;;;;;;1.90;1.37;;;;;;;23.83;55.63;99742.67;1734165;82;21002;-77
2021/08/27 08:33:28;;;;;;;1.77;1.32;;;;;;;23.74;55.49;99751.62;1734248;82;21046;-78
2021/08/27 08:35:55;;;;;;;2.87;1.57;;;;;;;23.65;55.05;99742.64;1734342;82;21035;-76
2021/08/27 08:38:23;;;;;;;3.10;1.80;;;;;;;23.51;55.77;99748.49;1734278;82;21833;-77
2021/08/27 08:40:49;;;;;;;2.12;1.50;;;;;;;23.46;55.80;99744.91;1734095;82;21049;-77
2021/08/27 08:43:16;;;;;;;4.15;1.95;;;;;;;23.38;55.48;99748.85;1734265;82;21098;-78
2021/08/27 08:45:48;;;;;;;3.87;1.80;;;;;;;23.30;56.42;99743.36;1734094;82;21102;-77
2021/08/27 08:48:19;;;;;;;2.80;1.85;;;;;;;23.19;57.02;99751.97;1734260;82;21053;-78
2021/08/27 08:50:46;;;;;;;6.05;1.62;;;;;;;23.19;57.21;99750.63;1734085;82;21795;-77
2021/08/27 08:53:13;;;;;;;3.58;1.85;;;;;;;23.35;57.71;99743.76;1734257;82;21043;-78
2021/08/27 08:55:41;;;;;;;3.10;1.75;;;;;;;23.63;56.68;99749.50;1712046;82;21081;-78
2021/08/27 08:58:07;;;;;;;1.98;1.75;;;;;;;23.81;56.36;99747.36;1705022;83;21597;-79
2021/08/27 09:00:37;;;;;;;3.92;1.60;;;;;;;24.27;54.89;99753.06;1705180;84;21041;-77
2021/08/27 09:03:04;;;;;;;5.00;1.50;;;;;;;24.74;52.36;99747.91;1685634;84;21104;-78
2021/08/27 09:05:33;;;;;;;2.35;1.67;;;;;;;24.97;52.61;99754.12;1651224;85;21588;-76
2021/08/27 09:07:59;;;;;;;2.22;1.50;;;;;;;25.07;51.03;99753.50;1666501;86;21097;-76
2021/08/27 09:10:27;;;;;;;2.45;1.70;;;;;;;24.91;51.12;99759.63;1666148;85;21112;-78
2021/08/27 09:12:54;;;;;;;2.47;1.70;;;;;;;24.71;51.19;99759.00;1666254;86;21140;-75
2021/08/27 09:15:21;;;;;;;2.90;1.90;;;;;;;24.42;51.14;99765.45;1650901;85;22259;-78
2021/08/27 09:17:53;;;;;;;3.08;1.77;;;;;;;24.10;51.25;99770.53;1665961;84;21156;-79
2021/08/27 09:20:23;;;;;;;1.98;1.65;;;;;;;23.91;51.91;99772.36;1666210;85;21524;-78
2021/08/27 09:22:56;;;;;;;2.98;1.80;;;;;;;23.94;50.57;99761.29;1637436;86;21109;-78
2021/08/27 09:25:27;;;;;;;3.22;1.70;;;;;;;24.18;51.10;99765.22;1666377;85;21089;-78
2021/08/27 09:28:18;;;;;;;2.55;1.70;;;;;;;24.73;49.48;99758.32;1666343;85;21615;-77
2021/08/27 09:30:55;;;;;;;2.67;2.00;;;;;;;25.35;48.39;99754.18;1665967;86;21049;-77
2021/08/27 09:33:27;;;;;;;3.42;1.80;;;;;;;25.99;47.60;99756.46;1666213;86;21603;-79
2021/08/27 09:36:00;;;;;;;1.72;1.62;;;;;;;26.61;46.09;99750.64;1666230;86;21054;-78
2021/08/27 09:38:35;;;;;;;2.52;1.70;;;;;;;27.05;44.90;99755.64;1666498;86;21140;-77
2021/08/27 09:41:08;;;;;;;1.72;1.40;;;;;;;27.35;44.36;99750.84;1666065;85;21643;-77
2021/08/27 09:43:50;;;;;;;1.80;1.55;;;;;;;27.23;41.25;99758.16;1666411;86;21065;-78
2021/08/27 09:46:37;;;;;;;4.28;1.70;;;;;;;26.72;43.39;99755.70;1666239;86;21137;-78
2021/08/27 09:49:32;;;;;;;1.60;1.50;;;;;;;26.54;43.29;99759.41;1661070;86;21137;-78
2021/08/27 09:52:02;;;;;;;1.30;1.20;;;;;;;26.52;43.28;99761.40;1666009;85;21152;-78
2021/08/27 09:54:38;;;;;;;1.60;1.30;;;;;;;26.45;42.06;99764.95;1674323;84;21295;-77
2021/08/27 09:57:12;;;;;;;2.50;1.60;;;;;;;26.25;42.95;99760.38;1694224;84;21636;-76
2021/08/27 09:59:50;;;;;;;2.05;1.45;;;;;;;25.98;43.49;99763.72;1694250;84;21068;-78
2021/08/27 10:02:26;;;;;;;3.08;1.50;;;;;;;25.84;44.90;99757.59;1694150;84;21148;-78
2021/08/27 10:04:57;;;;;;;3.75;1.80;;;;;;;25.86;44.78;99760.94;1694246;84;21101;-78
2021/08/27 10:07:40;;;;;;;2.65;1.70;;;;;;;26.16;43.85;99763.08;1693977;84;21093;-79
2021/08/27 10:10:13;;;;;;;2.47;1.67;;;;;;;26.42;43.75;99762.09;1694255;84;21082;-78
2021/08/27 10:12:49;;;;;;;2.20;1.55;;;;;;;26.64;41.89;99761.09;1694293;84;21647;-77
2021/08/27 10:15:11;;;;;;;1.90;1.67;;;;;;;26.87;41.91;99762.11;1693992;83;21568;-77
2021/08/27 10:17:40;;;;;;;2.30;2.10;;;;;;;27.05;42.14;99758.34;1694561;83;21066;-77
2021/08/27 10:20:10;;;;;;;6.17;2.20;;;;;;;26.99;42.32;99760.72;1694194;84;21105;-77
2021/08/27 10:22:42;;;;;;;2.62;2.20;;;;;;;26.84;41.29;99762.42;1694511;84;21081;-77
2021/08/27 10:25:11;;;;;;;7.70;2.40;;;;;;;26.61;42.17;99760.09;1694105;84;21093;-79
2021/08/27 10:27:39;;;;;;;2.10;1.75;;;;;;;26.40;42.34;99765.45;1694118;84;21413;-78
2021/08/27 10:31:15;;;;;;;2.52;2.02;;;;;;;26.05;41.83;99763.39;1796192;79;22866;-77
2021/08/27 10:33:49;;;;;;;2.40;2.12;;;;;;;25.74;43.03;99768.02;1756468;80;20966;-77
2021/08/27 10:36:27;;;;;;;3.05;2.27;;;;;;;25.47;42.59;99763.69;1751204;81;21121;-77
2021/08/27 10:38:55;;;;;;;3.00;2.22;;;;;;;25.30;43.91;99758.70;1756324;81;21069;-77
2021/08/27 10:41:36;;;;;;;4.53;2.85;;;;;;;25.27;44.78;99755.00;1756477;81;21012;-77
2021/08/27 10:44:06;;;;;;;3.17;2.83;;;;;;;25.23;45.41;99764.40;1756460;81;21022;-77
2021/08/27 10:46:52;;;;;;;3.10;2.80;;;;;;;25.08;46.05;99755.20;1756433;81;21053;-78
2021/08/27 10:49:33;;;;;;;3.65;2.80;;;;;;;25.03;46.11;99761.08;1756484;81;21186;-78
2021/08/27 10:52:01;;;;;;;;;;;;;;;24.96;46.56;99761.38;1719479;81;22194;-76
2021/08/27 10:54:34;;;;;;;3.10;2.80;;;;;;;24.88;46.53;99765.34;1764253;81;20491;-78
2021/08/27 10:57:00;;;;;;;4.10;3.35;;;;;;;24.81;46.45;99754.86;1721758;81;21083;-76
2021/08/27 10:59:37;;;;;;;3.10;2.60;;;;;;;24.89;46.98;99758.46;1731706;81;21066;-77
2021/08/27 11:02:05;;;;;;;3.02;2.72;;;;;;;25.02;46.64;99746.41;1731804;82;21902;-78
2021/08/27 11:04:42;;;;;;;8.30;3.60;;;;;;;25.27;47.32;99744.73;1731834;82;21098;-78
2021/08/27 11:07:19;;;;;;;3.50;2.60;;;;;;;25.60;45.69;99737.61;1731712;82;21050;-78
2021/08/27 11:10:07;;;;;;;3.17;2.50;;;;;;;25.84;45.54;99736.02;1731894;82;21074;-78
2021/08/27 11:12:34;;;;;;;5.60;3.02;;;;;;;26.07;42.76;99737.09;1731695;82;21632;-77
2021/08/27 11:15:27;;;;;;;3.43;2.83;;;;;;;26.19;42.38;99743.01;1732038;82;21631;-78
2021/08/27 11:18:17;;;;;;;4.87;2.80;;;;;;;26.23;42.50;99738.13;1731647;82;21078;-77
2021/08/27 11:20:45;;;;;;;4.17;2.80;;;;;;;26.18;42.56;99726.97;1731854;82;21074;-78
2021/08/27 11:23:12;;;;;;;3.83;2.70;;;;;;;26.13;40.91;99724.27;1731887;82;21644;-78
2021/08/27 11:25:42;;;;;;;3.37;2.72;;;;;;;26.19;41.71;99727.33;1732341;82;21550;-77
2021/08/27 11:28:15;;;;;;;3.52;2.60;;;;;;;26.16;41.31;99725.81;1732166;82;21131;-76
2021/08/27 11:30:47;;;;;;;3.10;2.42;;;;;;;26.33;42.13;99719.91;1724861;82;21396;-79
2021/08/27 11:33:48;;;;;;;3.40;3.10;;;;;;;26.52;42.48;99726.30;1721512;83;21558;-79
2021/08/27 11:36:17;;;;;;;7.20;3.00;;;;;;;26.73;42.62;99738.47;1721560;83;21539;-76
2021/08/27 11:38:46;;;;;;;2.70;2.50;;;;;;;26.81;42.38;99735.77;1721339;83;21091;-78
2021/08/27 11:41:12;;;;;;;4.08;3.20;;;;;;;26.86;41.86;99738.79;1701939;83;21485;-77
2021/08/27 11:43:44;;;;;;;2.77;2.45;;;;;;;26.95;39.96;99734.22;1720675;82;21023;-79
2021/08/27 11:46:24;;;;;;;4.37;2.70;;;;;;;26.81;41.20;99729.53;1720780;82;21118;-78